createdAt,value
2018-05-04T00:02:15.503Z,49.65
2018-05-04T00:04:44.574Z,50.00
2018-05-04T00:07:12.872Z,50.32
2018-05-04T00:09:41.127Z,50.41
2018-05-04T00:12:09.401Z,50.42
2018-05-04T00:14:37.933Z,50.25
2018-05-04T00:17:06.218Z,50.44
2018-05-04T00:19:34.482Z,50.47
2018-05-04T00:22:02.766Z,50.68
2018-05-04T00:24:31.025Z,51.24
2018-05-04T00:26:59.318Z,51.23
2018-05-04T00:29:27.597Z,51.72
2018-05-04T00:31:55.873Z,51.58
2018-05-04T00:34:24.163Z,51.47
2018-05-04T00:36:52.408Z,51.85
2018-05-04T00:39:20.747Z,52.26
2018-05-04T00:41:49.054Z,52.31
2018-05-04T00:44:17.338Z,52.53
2018-05-04T00:46:45.602Z,52.37
2018-05-04T00:49:13.884Z,52.11
2018-05-04T00:51:42.125Z,52.41
2018-05-04T00:54:22.289Z,52.74
2018-05-04T00:56:50.583Z,52.58
2018-05-04T00:59:18.862Z,52.96
2018-05-04T01:01:47.122Z,52.47
2018-05-04T01:04:15.390Z,52.72
2018-05-04T01:06:43.694Z,53.37
2018-05-04T01:09:11.983Z,53.42
2018-05-04T01:11:40.264Z,53.49
2018-05-04T01:14:08.555Z,53.34
2018-05-04T01:16:36.801Z,53.00
2018-05-04T01:19:05.126Z,53.35
2018-05-04T01:21:33.401Z,53.16
2018-05-04T01:24:01.745Z,53.13
2018-05-04T01:26:30.001Z,53.10
2018-05-04T01:28:58.304Z,53.52
2018-05-04T01:31:26.710Z,53.17
2018-05-04T01:33:54.970Z,53.27
2018-05-04T01:36:23.252Z,53.41
2018-05-04T01:38:51.522Z,53.77
2018-05-04T01:41:22.186Z,54.18
2018-05-04T01:43:51.176Z,53.93
2018-05-04T01:46:19.529Z,53.89
2018-05-04T01:48:47.921Z,54.25
2018-05-04T01:51:16.193Z,54.27
2018-05-04T01:53:44.434Z,54.04
2018-05-04T01:56:12.729Z,54.66
2018-05-04T01:58:40.990Z,55.21
2018-05-04T02:01:09.272Z,55.06
2018-05-04T02:03:37.531Z,54.99
2018-05-04T02:06:06.017Z,55.28
2018-05-04T02:08:34.294Z,55.20
2018-05-04T02:11:02.560Z,55.19
2018-05-04T02:13:30.852Z,55.26
2018-05-04T02:16:00.121Z,55.11
2018-05-04T02:18:28.439Z,55.58
2018-05-04T02:20:56.777Z,55.27
2018-05-04T02:23:25.067Z,55.61
2018-05-04T02:25:53.351Z,55.97
2018-05-04T02:28:21.706Z,56.18
2018-05-04T02:30:49.950Z,56.18
2018-05-04T02:33:18.255Z,56.68
2018-05-04T02:35:46.512Z,56.95
2018-05-04T02:38:14.794Z,56.97
2018-05-04T02:40:49.797Z,56.84
2018-05-04T02:43:18.096Z,57.27
2018-05-04T02:45:46.450Z,57.78
2018-05-04T02:48:14.757Z,58.33
2018-05-04T02:50:43.004Z,58.67
2018-05-04T02:53:11.319Z,58.26
2018-05-04T02:55:39.590Z,58.35
2018-05-04T02:58:07.939Z,58.32
2018-05-04T03:00:36.203Z,58.47
2018-05-04T03:03:04.825Z,58.82
2018-05-04T03:05:33.109Z,58.95
2018-05-04T03:08:01.586Z,58.93
2018-05-04T03:10:29.892Z,58.71
2018-05-04T03:12:58.151Z,58.70
2018-05-04T03:15:26.458Z,58.50
2018-05-04T03:17:54.802Z,58.49
2018-05-04T03:20:23.089Z,58.55
2018-05-04T03:22:51.363Z,58.43
2018-05-04T03:25:19.664Z,58.56
2018-05-04T03:27:47.918Z,58.33
2018-05-04T03:30:16.217Z,58.36
2018-05-04T03:32:44.484Z,58.71
2018-05-04T03:35:12.954Z,59.23
2018-05-04T03:37:41.218Z,59.22
2018-05-04T03:40:09.519Z,59.14
2018-05-04T03:42:37.908Z,59.30
2018-05-04T03:45:06.253Z,59.11
2018-05-04T03:47:34.518Z,59.07
2018-05-04T03:50:02.790Z,59.09
2018-05-04T03:52:31.119Z,59.56
2018-05-04T03:54:59.410Z,59.78
2018-05-04T03:57:39.546Z,59.54
2018-05-04T04:00:19.471Z,59.89
2018-05-04T04:03:16.168Z,60.03
2018-05-04T04:05:44.566Z,59.52
2018-05-04T04:08:12.843Z,59.52
2018-05-04T04:10:42.005Z,59.64
2018-05-04T04:13:10.338Z,59.81
2018-05-04T04:15:38.615Z,60.05
2018-05-04T04:18:06.972Z,59.98
2018-05-04T04:20:35.295Z,59.82
2018-05-04T04:23:03.588Z,59.74
2018-05-04T04:25:32.073Z,59.88
2018-05-04T04:28:00.384Z,60.29
2018-05-04T04:30:28.714Z,60.48
2018-05-04T04:32:57.111Z,61.01
2018-05-04T04:35:25.976Z,61.17
2018-05-04T04:37:54.488Z,61.21
2018-05-04T04:40:22.806Z,61.85
2018-05-04T04:42:52.466Z,61.37
2018-05-04T04:45:20.793Z,61.20
2018-05-04T04:47:49.107Z,61.36
2018-05-04T04:50:17.389Z,60.89
2018-05-04T04:52:45.778Z,61.06
2018-05-04T04:55:14.590Z,61.09
2018-05-04T04:57:42.859Z,61.40
2018-05-04T05:00:11.149Z,61.30
2018-05-04T05:02:39.446Z,60.87
2018-05-04T05:05:07.951Z,60.42
2018-05-04T05:07:36.274Z,60.17
2018-05-04T05:10:04.550Z,59.78
2018-05-04T05:12:32.811Z,59.53
2018-05-04T05:15:01.132Z,59.33
2018-05-04T05:17:29.386Z,59.07
2018-05-04T05:19:57.702Z,58.67
2018-05-04T05:22:27.160Z,58.44
2018-05-04T05:24:55.449Z,58.46
2018-05-04T05:27:23.774Z,58.26
2018-05-04T05:29:52.123Z,58.40
2018-05-04T05:32:20.464Z,58.17
2018-05-04T05:34:48.722Z,57.58
2018-05-04T05:37:17.096Z,57.37
2018-05-04T05:39:45.377Z,57.13
2018-05-04T05:42:13.683Z,57.33
2018-05-04T05:44:41.984Z,57.02
2018-05-04T05:47:19.849Z,56.73
2018-05-04T05:49:49.147Z,56.61
2018-05-04T05:52:17.417Z,56.52
2018-05-04T05:54:45.695Z,56.81
2018-05-04T05:57:14.030Z,57.40
2018-05-04T05:59:43.237Z,57.20
2018-05-04T06:02:11.550Z,57.23
2018-05-04T06:04:39.822Z,56.55
2018-05-04T06:07:08.205Z,55.88
2018-05-04T06:09:36.442Z,55.09
2018-05-04T06:12:04.852Z,54.50
2018-05-04T06:14:33.154Z,53.93
2018-05-04T06:17:01.437Z,53.90
2018-05-04T06:19:29.786Z,53.54
2018-05-04T06:21:58.086Z,53.11
2018-05-04T06:24:26.357Z,52.79
2018-05-04T06:26:54.746Z,52.07
2018-05-04T06:29:23.060Z,51.84
2018-05-04T06:31:51.545Z,50.92
2018-05-04T06:34:19.851Z,50.65
2018-05-04T06:36:49.057Z,50.29
2018-05-04T06:39:17.546Z,49.94
2018-05-04T06:41:45.820Z,49.31
2018-05-04T06:44:14.139Z,48.64
2018-05-04T06:46:42.932Z,48.28
2018-05-04T06:49:11.221Z,47.93
2018-05-04T06:51:39.716Z,47.92
2018-05-04T06:54:08.026Z,47.97
2018-05-04T06:56:36.395Z,47.87
2018-05-04T06:59:04.678Z,47.54
2018-05-04T07:01:33.890Z,47.63
2018-05-04T07:04:02.183Z,47.78
2018-05-04T07:06:30.537Z,46.83
2018-05-04T07:08:58.949Z,46.69
2018-05-04T07:11:27.257Z,46.87
2018-05-04T07:13:55.576Z,46.62
2018-05-04T07:16:23.944Z,47.15
2018-05-04T07:18:52.239Z,47.27
2018-05-04T07:21:20.626Z,47.04
2018-05-04T07:23:48.893Z,47.03
2018-05-04T07:26:17.188Z,47.15
2018-05-04T07:28:45.521Z,46.66
2018-05-04T07:31:13.730Z,46.21
2018-05-04T07:33:42.001Z,45.94
2018-05-04T07:36:10.290Z,45.91
2018-05-04T07:38:38.576Z,45.83
2018-05-04T07:41:07.034Z,45.84
2018-05-04T07:43:35.320Z,45.80
2018-05-04T07:46:03.615Z,45.55
2018-05-04T07:48:32.697Z,45.30
2018-05-04T07:51:01.649Z,45.24
2018-05-04T07:53:29.958Z,45.17
2018-05-04T07:55:59.162Z,45.29
2018-05-04T07:58:27.503Z,45.26
2018-05-04T08:00:56.030Z,45.35
2018-05-04T08:03:24.298Z,44.95
2018-05-04T08:05:52.584Z,44.81
2018-05-04T08:08:20.902Z,45.01
2018-05-04T08:10:50.074Z,45.02
2018-05-04T08:13:19.268Z,45.49
2018-05-04T08:15:47.556Z,45.33
2018-05-04T08:18:15.830Z,45.24
2018-05-04T08:20:44.177Z,44.92
2018-05-04T08:23:12.506Z,44.75
2018-05-04T08:25:40.748Z,44.57
2018-05-04T08:28:09.847Z,44.44
2018-05-04T08:30:38.201Z,44.34
2018-05-04T08:33:06.771Z,44.42
2018-05-04T08:35:35.070Z,44.29
2018-05-04T08:38:03.550Z,44.58
2018-05-04T08:40:31.869Z,44.80
2018-05-04T08:43:00.644Z,45.47
2018-05-04T08:45:29.094Z,45.69
2018-05-04T08:47:57.375Z,45.63
2018-05-04T08:50:25.817Z,45.92
2018-05-04T08:52:54.344Z,45.69
2018-05-04T08:55:22.617Z,46.09
2018-05-04T08:57:52.127Z,46.12
2018-05-04T09:00:20.401Z,45.99
2018-05-04T09:02:49.313Z,45.78
2018-05-04T09:05:18.711Z,45.66
2018-05-04T09:07:46.835Z,45.50
2018-05-04T09:10:15.154Z,45.39
2018-05-04T09:12:43.486Z,45.26
2018-05-04T09:15:11.911Z,44.81
2018-05-04T09:17:40.204Z,44.57
2018-05-04T09:20:08.531Z,44.46
2018-05-04T09:22:37.027Z,43.75
2018-05-04T09:25:05.490Z,43.86
2018-05-04T09:27:33.801Z,44.06
2018-05-04T09:30:02.768Z,43.99
2018-05-04T09:32:31.162Z,43.61
2018-05-04T09:34:59.571Z,43.53
2018-05-04T09:37:27.891Z,43.63
2018-05-04T09:39:56.387Z,43.53
2018-05-04T09:42:24.795Z,43.73
2018-05-04T09:44:54.644Z,43.69
2018-05-04T09:47:22.979Z,44.53
2018-05-04T09:49:51.360Z,44.25
2018-05-04T09:52:19.802Z,44.30
2018-05-04T09:54:48.134Z,44.21
2018-05-04T09:57:16.471Z,44.42
2018-05-04T09:59:44.870Z,44.53
2018-05-04T10:02:13.356Z,44.64
2018-05-04T10:04:41.609Z,44.62
2018-05-04T10:07:10.420Z,44.76
2018-05-04T10:09:38.840Z,44.09
2018-05-04T10:12:07.995Z,43.39
2018-05-04T10:14:36.267Z,43.78
2018-05-04T10:17:04.696Z,44.14
2018-05-04T10:19:32.946Z,43.62
2018-05-04T10:22:01.331Z,43.74
2018-05-04T10:24:29.607Z,43.45
2018-05-04T10:26:57.878Z,44.00
2018-05-04T10:29:26.721Z,43.81
2018-05-04T10:31:55.116Z,43.00
2018-05-04T10:34:23.427Z,42.91
2018-05-04T10:36:51.852Z,42.54
2018-05-04T10:39:20.176Z,42.83
2018-05-04T10:41:48.657Z,42.60
2018-05-04T10:44:17.044Z,42.16
2018-05-04T10:46:46.155Z,42.59
2018-05-04T10:49:14.463Z,43.02
2018-05-04T10:51:42.777Z,42.84
2018-05-04T10:54:11.110Z,42.48
2018-05-04T10:56:39.562Z,42.37
2018-05-04T10:59:07.982Z,42.18
2018-05-04T11:01:37.017Z,41.47
2018-05-04T11:04:05.551Z,41.27
2018-05-04T11:06:33.915Z,41.45
2018-05-04T11:09:02.794Z,41.40
2018-05-04T11:11:31.095Z,41.64
2018-05-04T11:13:59.398Z,41.68
2018-05-04T11:16:27.709Z,42.04
2018-05-04T11:18:55.981Z,41.89
2018-05-04T11:21:24.306Z,41.41
2018-05-04T11:23:52.584Z,40.84
2018-05-04T11:26:20.894Z,41.60
2018-05-04T11:28:49.167Z,41.28
2018-05-04T11:31:17.554Z,41.05
2018-05-04T11:33:45.827Z,40.48
2018-05-04T11:36:14.154Z,39.79
2018-05-04T11:38:42.430Z,39.39
2018-05-04T11:41:10.727Z,39.47
2018-05-04T11:43:38.997Z,39.83
2018-05-04T11:46:07.341Z,39.80
2018-05-04T11:48:35.609Z,38.97
2018-05-04T11:51:04.011Z,39.02
2018-05-04T11:53:32.340Z,38.30
2018-05-04T11:56:00.681Z,39.24
2018-05-04T11:58:29.554Z,39.83
2018-05-04T12:00:57.842Z,39.49
2018-05-04T12:03:26.116Z,40.04
2018-05-04T12:05:54.386Z,40.09
2018-05-04T12:08:22.750Z,39.64
2018-05-04T12:10:51.064Z,39.17
2018-05-04T12:13:19.370Z,39.03
2018-05-04T12:15:47.683Z,39.40
2018-05-04T12:18:15.998Z,39.29
2018-05-04T12:20:44.302Z,39.34
2018-05-04T12:23:12.702Z,38.96
2018-05-04T12:25:41.086Z,38.53
2018-05-04T12:28:09.374Z,38.65
2018-05-04T12:30:38.394Z,38.85
2018-05-04T12:33:06.702Z,38.30
2018-05-04T12:35:34.968Z,38.33
2018-05-04T12:38:03.317Z,38.65
2018-05-04T12:40:31.600Z,38.92
2018-05-04T12:42:59.978Z,38.96
2018-05-04T12:45:28.312Z,38.22
2018-05-04T12:47:56.688Z,37.08
2018-05-04T12:50:24.949Z,37.31
2018-05-04T12:52:53.294Z,37.16
2018-05-04T12:55:21.592Z,36.83
2018-05-04T12:57:50.479Z,36.33
2018-05-04T13:00:18.782Z,37.00
2018-05-04T13:02:47.176Z,37.71
2018-05-04T13:05:15.487Z,37.28
2018-05-04T13:07:43.751Z,36.82
2018-05-04T13:10:12.029Z,35.94
2018-05-04T13:12:40.326Z,35.61
2018-05-04T13:15:08.726Z,36.63
2018-05-04T13:17:36.983Z,36.67
2018-05-04T13:20:05.359Z,36.26
2018-05-04T13:22:33.594Z,36.35
2018-05-04T13:25:01.936Z,36.18
2018-05-04T13:27:30.178Z,36.09
2018-05-04T13:29:58.487Z,35.87
2018-05-04T13:32:26.742Z,35.74
2018-05-04T13:34:55.449Z,35.15
2018-05-04T13:37:23.694Z,35.47
2018-05-04T13:39:52.011Z,35.26
2018-05-04T13:42:20.363Z,34.83
2018-05-04T13:44:48.674Z,35.03
2018-05-04T13:47:16.993Z,35.75
2018-05-04T13:49:45.356Z,35.56
2018-05-04T13:52:13.695Z,34.89
2018-05-04T13:54:41.980Z,34.65
2018-05-04T13:57:10.249Z,34.90
2018-05-04T13:59:38.522Z,35.04
2018-05-04T14:02:06.798Z,34.18
2018-05-04T14:04:35.128Z,34.21
2018-05-04T14:07:03.436Z,34.27
2018-05-04T14:09:31.765Z,33.84
2018-05-04T14:12:00.110Z,34.14
2018-05-04T14:14:28.890Z,34.03
2018-05-04T14:16:57.166Z,33.66
2018-05-04T14:19:25.438Z,33.34
2018-05-04T14:21:53.734Z,33.55
2018-05-04T14:24:22.079Z,32.80
2018-05-04T14:26:50.737Z,32.18
2018-05-04T14:29:19.045Z,31.72
2018-05-04T14:31:47.389Z,31.89
2018-05-04T14:34:15.704Z,31.72
2018-05-04T14:36:44.005Z,32.31
2018-05-04T14:39:12.351Z,31.72
2018-05-04T14:41:41.217Z,31.49
2018-05-04T14:44:09.491Z,31.96
2018-05-04T14:46:37.763Z,32.16
2018-05-04T14:49:06.051Z,32.82
2018-05-04T14:51:34.334Z,32.74
2018-05-04T14:54:02.628Z,32.02
2018-05-04T14:56:30.916Z,30.96
2018-05-04T14:58:59.242Z,30.75
2018-05-04T15:01:27.533Z,30.77
2018-05-04T15:03:55.879Z,30.42
2018-05-04T15:06:24.176Z,30.01
2018-05-04T15:08:52.466Z,29.55
2018-05-04T15:11:20.761Z,29.54
2018-05-04T15:13:49.059Z,30.04
2018-05-04T15:16:17.389Z,30.12
2018-05-04T15:18:46.436Z,29.64
2018-05-04T15:21:14.849Z,30.01
2018-05-04T15:23:43.157Z,29.95
2018-05-04T15:26:11.434Z,30.25
2018-05-04T15:28:39.771Z,30.07
2018-05-04T15:31:08.045Z,29.36
2018-05-04T15:33:36.322Z,29.45
2018-05-04T15:36:04.612Z,29.23
2018-05-04T15:38:32.898Z,29.22
2018-05-04T15:41:01.199Z,29.60
2018-05-04T15:43:29.470Z,29.09
2018-05-04T15:45:57.849Z,28.69
2018-05-04T15:51:39.128Z,28.58
2018-05-04T15:54:07.447Z,28.25
2018-05-04T15:56:36.456Z,28.39
2018-05-04T15:59:04.741Z,27.75
2018-05-04T16:01:33.960Z,27.86
2018-05-04T16:04:02.247Z,28.57
2018-05-04T16:06:30.530Z,28.48
2018-05-04T16:08:58.825Z,28.55
2018-05-04T16:11:27.272Z,28.24
2018-05-04T16:13:55.546Z,28.65
2018-05-04T16:16:23.927Z,28.80
2018-05-04T16:18:52.158Z,28.47
2018-05-04T16:21:20.555Z,28.63
2018-05-04T16:23:48.836Z,27.80
2018-05-04T16:26:17.129Z,27.41
2018-05-04T16:28:45.636Z,27.48
2018-05-04T16:31:13.876Z,27.91
2018-05-04T16:33:42.227Z,27.35
2018-05-04T16:36:10.529Z,26.96
2018-05-04T16:38:38.863Z,27.68
2018-05-04T16:41:07.111Z,28.11
2018-05-04T16:43:35.401Z,28.19
2018-05-04T16:46:03.700Z,28.32
2018-05-04T16:48:37.724Z,28.94
2018-05-04T16:51:06.088Z,29.10
2018-05-04T16:53:34.529Z,28.45
2018-05-04T16:56:02.847Z,27.69
2018-05-04T16:58:31.117Z,28.36
2018-05-04T17:00:59.395Z,28.23
2018-05-04T17:03:27.687Z,29.66
2018-05-04T17:05:55.941Z,30.88
2018-05-04T17:08:24.226Z,31.30
2018-05-04T17:10:53.339Z,31.25
2018-05-04T17:13:21.794Z,31.56
2018-05-04T17:15:50.116Z,31.26
2018-05-04T17:18:18.366Z,31.39
2018-05-04T17:20:46.678Z,31.73
2018-05-04T17:23:14.970Z,31.72
2018-05-04T17:25:43.295Z,31.96
2018-05-04T17:28:11.619Z,32.09
2018-05-04T17:30:40.212Z,32.17
2018-05-04T17:33:08.481Z,32.41
2018-05-04T17:35:36.767Z,32.48
2018-05-04T17:38:05.666Z,32.41
2018-05-04T17:40:34.145Z,32.61
2018-05-04T17:43:02.328Z,33.31
2018-05-04T17:45:30.598Z,33.09
2018-05-04T17:47:58.872Z,33.19
2018-05-04T17:50:27.182Z,33.24
2018-05-04T17:52:55.448Z,33.08
2018-05-04T17:55:23.824Z,32.92
2018-05-04T17:57:52.983Z,32.93
2018-05-04T18:00:21.310Z,32.99
2018-05-04T18:02:49.640Z,32.97
2018-05-04T18:05:17.902Z,32.99
2018-05-04T18:07:46.175Z,33.04
2018-05-04T18:10:14.585Z,33.31
2018-05-04T18:12:42.798Z,33.40
2018-05-04T18:15:11.680Z,33.71
2018-05-04T18:17:40.003Z,33.59
2018-05-04T18:20:08.273Z,33.81
2018-05-04T18:22:36.539Z,33.74
2018-05-04T18:25:04.851Z,33.94
2018-05-04T18:27:33.325Z,34.03
2018-05-04T18:30:01.838Z,34.25
2018-05-04T18:32:30.114Z,34.64
2018-05-04T18:34:58.382Z,34.81
2018-05-04T18:37:26.853Z,35.05
2018-05-04T18:39:55.887Z,34.94
2018-05-04T18:42:24.228Z,35.09
2018-05-04T18:44:52.518Z,35.13
2018-05-04T18:47:20.838Z,35.32
2018-05-04T18:49:49.118Z,35.53
2018-05-04T18:52:17.396Z,35.72
2018-05-04T18:54:45.692Z,36.00
2018-05-04T18:57:13.933Z,36.14
2018-05-04T18:59:42.226Z,36.12
2018-05-04T19:02:10.567Z,36.44
2018-05-04T19:04:38.945Z,36.43
2018-05-04T19:07:07.262Z,36.53
2018-05-04T19:09:35.617Z,36.68
2018-05-04T19:12:03.990Z,36.65
2018-05-04T19:14:32.275Z,36.86
2018-05-04T19:17:00.561Z,36.94
2018-05-04T19:19:28.881Z,37.20
2018-05-04T19:21:57.216Z,37.68
2018-05-04T19:24:25.814Z,37.98
2018-05-04T19:26:54.140Z,37.81
2018-05-04T19:29:22.432Z,37.88
2018-05-04T19:31:50.696Z,38.21
2018-05-04T19:34:19.485Z,38.58
2018-05-04T19:36:47.767Z,38.99
2018-05-04T19:39:16.054Z,39.14
2018-05-04T19:41:44.338Z,39.01
2018-05-04T19:44:12.633Z,39.05
2018-05-04T19:46:40.883Z,39.52
2018-05-04T19:49:09.248Z,39.49
2018-05-04T19:51:37.591Z,39.20
2018-05-04T19:54:06.334Z,39.93
2018-05-04T19:56:34.623Z,40.35
2018-05-04T19:59:02.965Z,40.67
2018-05-04T20:01:31.350Z,40.31
2018-05-04T20:03:59.930Z,40.43
2018-05-04T20:06:28.630Z,40.43
2018-05-04T20:08:56.945Z,40.48
2018-05-04T20:11:25.201Z,40.63
2018-05-04T20:13:54.239Z,40.97
2018-05-04T20:16:22.591Z,41.12
2018-05-04T20:18:51.520Z,41.23
2018-05-04T20:21:19.791Z,41.41
2018-05-04T20:23:48.606Z,41.39
2018-05-04T20:26:16.926Z,41.65
2018-05-04T20:28:45.242Z,41.82
2018-05-04T20:31:13.539Z,41.82
2018-05-04T20:33:41.809Z,41.86
2018-05-04T20:36:10.134Z,41.89
2018-05-04T20:38:38.430Z,41.97
2018-05-04T20:41:06.714Z,42.59
2018-05-04T20:43:35.080Z,42.64
2018-05-04T20:46:03.423Z,42.75
2018-05-04T20:48:31.691Z,42.90
2018-05-04T20:50:59.987Z,42.80
2018-05-04T20:53:28.350Z,43.13
2018-05-04T20:55:57.850Z,43.21
2018-05-04T20:58:27.088Z,43.48
2018-05-04T21:00:55.571Z,43.71
2018-05-04T21:03:23.841Z,43.81
2018-05-04T21:05:52.109Z,44.02
2018-05-04T21:08:20.439Z,44.29
2018-05-04T21:10:49.318Z,44.05
2018-05-04T21:13:17.731Z,44.02
2018-05-04T21:15:46.020Z,43.93
2018-05-04T21:18:14.297Z,44.27
2018-05-04T21:20:42.578Z,44.41
2018-05-04T21:23:10.887Z,44.54
2018-05-04T21:25:39.157Z,44.84
2018-05-04T21:28:07.471Z,44.76
2018-05-04T21:30:35.768Z,44.94
2018-05-04T21:33:04.230Z,44.95
2018-05-04T21:35:32.591Z,44.97
2018-05-04T21:38:00.940Z,44.71
2018-05-04T21:40:29.259Z,44.75
2018-05-04T21:42:58.427Z,45.04
2018-05-04T21:45:26.731Z,45.15
2018-05-04T21:47:54.994Z,45.38
2018-05-04T21:50:23.305Z,45.20
2018-05-04T21:52:51.639Z,45.59
2018-05-04T21:55:19.949Z,45.86
2018-05-04T21:57:48.222Z,46.12
2018-05-04T22:00:17.414Z,46.19
2018-05-04T22:02:45.677Z,46.23
2018-05-04T22:05:14.560Z,46.26
2018-05-04T22:07:42.899Z,46.46
2018-05-04T22:10:12.981Z,46.32
2018-05-04T22:12:42.117Z,46.66
2018-05-04T22:15:11.142Z,46.87
2018-05-04T22:17:39.403Z,46.67
2018-05-04T22:20:07.758Z,46.88
2018-05-04T22:22:36.071Z,47.00
2018-05-04T22:25:04.374Z,47.09
2018-05-04T22:27:32.627Z,47.47
2018-05-04T22:30:00.916Z,47.35
2018-05-04T22:32:29.222Z,47.67
2018-05-04T22:34:58.393Z,47.86
2018-05-04T22:37:26.666Z,47.84
2018-05-04T22:39:58.570Z,47.81
2018-05-04T22:42:26.895Z,47.62
2018-05-04T22:44:56.036Z,47.80
2018-05-04T22:47:24.349Z,47.64
2018-05-04T22:49:52.577Z,47.88
2018-05-04T22:52:20.963Z,47.79
2018-05-04T22:54:49.233Z,47.72
2018-05-04T22:57:17.517Z,47.91
2018-05-04T22:59:46.284Z,47.76
2018-05-04T23:02:14.607Z,47.67
2018-05-04T23:04:42.928Z,47.89
2018-05-04T23:07:11.424Z,47.83
2018-05-04T23:09:39.720Z,47.92
2018-05-04T23:12:07.997Z,48.23
2018-05-04T23:14:36.325Z,48.11
2018-05-04T23:17:04.950Z,48.26
2018-05-04T23:19:33.210Z,48.17
2018-05-04T23:22:01.612Z,47.79
2018-05-04T23:24:29.964Z,48.11
2018-05-04T23:26:58.239Z,48.03
2018-05-04T23:29:26.708Z,48.12
2018-05-04T23:31:55.003Z,48.23
2018-05-04T23:34:23.385Z,48.07
2018-05-04T23:36:51.621Z,48.40
2018-05-04T23:39:19.922Z,48.33
2018-05-04T23:41:48.204Z,48.26
2018-05-04T23:44:16.486Z,48.40
2018-05-04T23:46:44.783Z,48.44
2018-05-04T23:49:13.125Z,48.77
2018-05-04T23:51:41.512Z,48.94
2018-05-04T23:54:09.822Z,48.71
2018-05-04T23:56:38.125Z,48.58
2018-05-04T23:59:06.473Z,48.40
